createdAt,value
2016-02-21T00:00:08.911Z,0
2016-02-21T00:01:08.963Z,0
2016-02-21T00:02:08.902Z,0
2016-02-21T00:03:08.906Z,0
2016-02-21T00:04:08.908Z,0
2016-02-21T00:05:08.943Z,0
2016-02-21T00:06:08.899Z,0
2016-02-21T00:07:08.916Z,0
2016-02-21T00:08:08.935Z,0
2016-02-21T00:09:08.906Z,0
2016-02-21T00:10:08.924Z,0
2016-02-21T00:11:08.896Z,0
2016-02-21T00:12:08.899Z,0
2016-02-21T00:13:08.917Z,0
2016-02-21T00:14:08.904Z,0
2016-02-21T00:15:08.922Z,0
2016-02-21T00:16:08.909Z,0
2016-02-21T00:17:08.912Z,0
2016-02-21T00:18:08.899Z,0
2016-02-21T00:19:08.918Z,0
2016-02-21T00:20:08.904Z,0
2016-02-21T00:21:08.954Z,0
2016-02-21T00:22:08.909Z,0
2016-02-21T00:23:08.928Z,0
2016-02-21T00:24:08.915Z,0
2016-02-21T00:25:08.917Z,0
2016-02-21T00:26:08.921Z,0
2016-02-21T00:27:08.923Z,0
2016-02-21T00:28:08.911Z,0
2016-02-21T00:29:08.913Z,0
2016-02-21T00:30:08.916Z,0
2016-02-21T00:31:08.950Z,0
2016-02-21T00:32:08.922Z,0
2016-02-21T00:33:08.799Z,0
2016-02-21T00:34:08.911Z,0
2016-02-21T00:35:08.914Z,0
2016-02-21T00:36:08.932Z,0
2016-02-21T00:37:08.903Z,0
2016-02-21T00:38:08.921Z,0
2016-02-21T00:39:08.941Z,0
2016-02-21T00:40:08.943Z,0
2016-02-21T00:41:08.914Z,0
2016-02-21T00:42:08.901Z,0
2016-02-21T00:43:08.919Z,0
2016-02-21T00:44:08.923Z,0
2016-02-21T00:45:08.926Z,0
2016-02-21T00:46:08.928Z,0
2016-02-21T00:47:08.931Z,0
2016-02-21T00:48:08.964Z,0
2016-02-21T00:49:08.920Z,0
2016-02-21T00:50:08.938Z,0
2016-02-21T00:51:08.925Z,0
2016-02-21T00:52:08.913Z,0
2016-02-21T00:53:08.947Z,0
2016-02-21T00:54:08.934Z,0
2016-02-21T00:55:08.936Z,0
2016-02-21T00:56:08.938Z,0
2016-02-21T00:57:08.942Z,0
2016-02-21T00:58:08.945Z,0
2016-02-21T00:59:08.931Z,0
2016-02-21T01:00:08.919Z,0
2016-02-21T01:01:08.937Z,0
2016-02-21T01:02:08.924Z,0
2016-02-21T01:03:08.926Z,0
2016-02-21T01:04:08.944Z,0
2016-02-21T01:05:08.933Z,0
2016-02-21T01:06:08.935Z,0
2016-02-21T01:07:08.938Z,0
2016-02-21T01:08:08.940Z,0
2016-02-21T01:09:08.943Z,0
2016-02-21T01:10:08.930Z,0
2016-02-21T01:11:08.932Z,0
2016-02-21T01:12:08.934Z,0
2016-02-21T01:13:08.938Z,0
2016-02-21T01:14:08.956Z,0
2016-02-21T01:15:08.943Z,0
2016-02-21T01:16:08.945Z,0
2016-02-21T01:17:08.932Z,0
2016-02-21T01:18:08.796Z,0
2016-02-21T01:19:08.938Z,0
2016-02-21T01:20:08.957Z,0
2016-02-21T01:21:08.943Z,0
2016-02-21T01:22:08.931Z,0
2016-02-21T01:23:08.917Z,0
2016-02-21T01:24:08.937Z,0
2016-02-21T01:25:08.954Z,0
2016-02-21T01:26:08.942Z,0
2016-02-21T01:27:08.960Z,0
2016-02-21T01:28:08.947Z,0
2016-02-21T01:29:08.949Z,0
2016-02-21T01:30:08.967Z,0
2016-02-21T01:31:08.939Z,0
2016-02-21T01:32:08.958Z,0
2016-02-21T01:33:08.960Z,0
2016-02-21T01:34:08.947Z,0
2016-02-21T01:35:08.966Z,0
2016-02-21T01:36:08.937Z,0
2016-02-21T01:37:08.940Z,0
2016-02-21T01:38:08.942Z,0
2016-02-21T01:39:08.946Z,0
2016-02-21T01:40:08.948Z,0
2016-02-21T01:41:08.951Z,0
2016-02-21T01:42:08.953Z,0
2016-02-21T01:43:08.956Z,0
2016-02-21T01:44:08.943Z,0
2016-02-21T01:45:08.946Z,0
2016-02-21T01:46:08.949Z,0
2016-02-21T01:47:08.982Z,0
2016-02-21T01:48:08.954Z,0
2016-02-21T01:49:08.972Z,0
2016-02-21T01:50:08.959Z,0
2016-02-21T01:51:08.961Z,0
2016-02-21T01:52:08.949Z,0
2016-02-21T01:53:08.952Z,0
2016-02-21T01:54:08.970Z,0
2016-02-21T01:55:08.942Z,0
2016-02-21T01:56:08.975Z,0
2016-02-21T01:57:08.790Z,0
2016-02-21T01:58:08.949Z,0
2016-02-21T01:59:08.984Z,0
2016-02-21T02:00:08.955Z,0
2016-02-21T02:01:08.958Z,0
2016-02-21T02:02:08.960Z,0
2016-02-21T02:03:08.947Z,0
2016-02-21T02:04:08.949Z,0
2016-02-21T02:05:08.797Z,0
2016-02-21T02:06:08.972Z,0
2016-02-21T02:07:08.958Z,0
2016-02-21T02:08:08.977Z,0
2016-02-21T02:09:08.963Z,0
2016-02-21T02:10:08.997Z,0
2016-02-21T02:11:08.968Z,0
2016-02-21T02:12:08.955Z,0
2016-02-21T02:13:08.958Z,0
2016-02-21T02:14:08.961Z,0
2016-02-21T02:15:08.964Z,0
2016-02-21T02:16:08.966Z,0
2016-02-21T02:17:08.984Z,0
2016-02-21T02:18:08.957Z,0
2016-02-21T02:19:08.959Z,0
2016-02-21T02:20:08.962Z,0
2016-02-21T02:21:08.965Z,0
2016-02-21T02:22:08.982Z,0
2016-02-21T02:23:08.954Z,0
2016-02-21T02:24:08.972Z,0
2016-02-21T02:25:08.975Z,0
2016-02-21T02:26:08.962Z,0
2016-02-21T02:27:08.981Z,0
2016-02-21T02:28:08.968Z,0
2016-02-21T02:29:08.970Z,0
2016-02-21T02:30:08.989Z,0
2016-02-21T02:31:08.976Z,0
2016-02-21T02:32:08.994Z,0
2016-02-21T02:33:08.966Z,0
2016-02-21T02:34:09.015Z,0
2016-02-21T02:35:08.971Z,0
2016-02-21T02:36:08.974Z,0
2016-02-21T02:37:08.992Z,0
2016-02-21T02:38:08.963Z,0
2016-02-21T02:39:08.982Z,0
2016-02-21T02:40:08.969Z,0
2016-02-21T02:41:08.972Z,0
2016-02-21T02:42:09.005Z,0
2016-02-21T02:43:08.961Z,0
2016-02-21T02:44:08.979Z,0
2016-02-21T02:45:08.982Z,0
2016-02-21T02:46:08.984Z,0
2016-02-21T02:47:09.004Z,0
2016-02-21T02:48:08.974Z,0
2016-02-21T02:49:08.993Z,0
2016-02-21T02:50:08.980Z,0
2016-02-21T02:51:08.975Z,0
2016-02-21T02:52:08.969Z,0
2016-02-21T02:53:08.947Z,0
2016-02-21T02:54:08.955Z,0
2016-02-21T02:55:08.934Z,0
2016-02-21T02:56:08.930Z,0
2016-02-21T02:57:08.929Z,0
2016-02-21T02:58:08.913Z,0
2016-02-21T02:59:08.943Z,0
2016-02-21T03:00:08.928Z,0
2016-02-21T03:01:08.928Z,0
2016-02-21T03:02:08.929Z,0
2016-02-21T03:03:08.914Z,0
2016-02-21T03:04:08.931Z,0
2016-02-21T03:05:08.932Z,0
2016-02-21T03:06:08.918Z,0
2016-02-21T03:07:08.920Z,0
2016-02-21T03:08:08.907Z,0
2016-02-21T03:09:08.910Z,0
2016-02-21T03:10:08.928Z,0
2016-02-21T03:11:08.914Z,0
2016-02-21T03:12:08.917Z,0
2016-02-21T03:13:08.905Z,0
2016-02-21T03:14:08.908Z,0
2016-02-21T03:15:08.941Z,0
2016-02-21T03:16:08.913Z,0
2016-02-21T03:17:08.930Z,0
2016-02-21T03:18:08.918Z,0
2016-02-21T03:19:08.920Z,0
2016-02-21T03:20:08.923Z,0
2016-02-21T03:21:08.910Z,0
2016-02-21T03:22:08.913Z,0
2016-02-21T03:23:08.947Z,0
2016-02-21T03:24:08.918Z,0
2016-02-21T03:25:08.921Z,0
2016-02-21T03:26:08.924Z,0
2016-02-21T03:27:08.909Z,0
2016-02-21T03:28:08.911Z,0
2016-02-21T03:29:08.914Z,0
2016-02-21T03:30:08.917Z,0
2016-02-21T03:31:08.920Z,0
2016-02-21T03:32:08.937Z,0
2016-02-21T03:33:08.940Z,0
2016-02-21T03:34:08.927Z,0
2016-02-21T03:35:08.930Z,0
2016-02-21T03:36:08.916Z,0
2016-02-21T03:37:08.919Z,0
2016-02-21T03:38:08.922Z,0
2016-02-21T03:39:08.941Z,0
2016-02-21T03:40:08.944Z,0
2016-02-21T03:41:08.930Z,0
2016-02-21T03:42:08.932Z,0
2016-02-21T03:43:08.920Z,0
2016-02-21T03:44:08.923Z,0
2016-02-21T03:45:08.925Z,0
2016-02-21T03:46:08.928Z,0
2016-02-21T03:47:08.931Z,0
2016-02-21T03:48:08.949Z,0
2016-02-21T03:49:08.921Z,0
2016-02-21T03:50:08.923Z,0
2016-02-21T03:51:08.942Z,0
2016-02-21T03:52:08.944Z,0
2016-02-21T03:53:08.932Z,0
2016-02-21T03:54:08.934Z,0
2016-02-21T03:55:08.937Z,0
2016-02-21T03:56:08.940Z,0
2016-02-21T03:57:08.942Z,0
2016-02-21T03:58:08.928Z,0
2016-02-21T03:59:08.932Z,0
2016-02-21T04:00:08.951Z,0
2016-02-21T04:01:08.953Z,0
2016-02-21T04:02:08.939Z,0
2016-02-21T04:03:08.926Z,0
2016-02-21T04:04:08.930Z,0
2016-02-21T04:05:08.932Z,0
2016-02-21T04:06:08.967Z,0
2016-02-21T04:07:08.969Z,0
2016-02-21T04:08:08.956Z,0
2016-02-21T04:09:08.942Z,0
2016-02-21T04:10:08.930Z,0
2016-02-21T04:11:08.932Z,0
2016-02-21T04:12:08.935Z,0
2016-02-21T04:13:08.939Z,0
2016-02-21T04:14:08.941Z,0
2016-02-21T04:15:08.944Z,0
2016-02-21T04:16:08.946Z,0
2016-02-21T04:17:08.949Z,0
2016-02-21T04:18:08.952Z,0
2016-02-21T04:19:08.955Z,0
2016-02-21T04:20:08.958Z,0
2016-02-21T04:21:08.960Z,0
2016-02-21T04:22:08.963Z,0
2016-02-21T04:23:08.965Z,0
2016-02-21T04:24:08.952Z,0
2016-02-21T04:25:08.971Z,0
2016-02-21T04:26:08.957Z,0
2016-02-21T04:27:08.945Z,0
2016-02-21T04:28:08.948Z,0
2016-02-21T04:29:08.951Z,0
2016-02-21T04:30:08.984Z,0
2016-02-21T04:31:08.814Z,0
2016-02-21T04:32:08.973Z,0
2016-02-21T04:33:08.962Z,0
2016-02-21T04:34:08.948Z,0
2016-02-21T04:35:08.951Z,0
2016-02-21T04:36:08.953Z,0
2016-02-21T04:37:08.956Z,0
2016-02-21T04:38:08.958Z,0
2016-02-21T04:39:08.962Z,0
2016-02-21T04:40:08.963Z,0
2016-02-21T04:41:08.983Z,0
2016-02-21T04:42:08.969Z,0
2016-02-21T04:43:08.972Z,0
2016-02-21T04:44:08.958Z,0
2016-02-21T04:45:08.946Z,0
2016-02-21T04:46:08.949Z,0
2016-02-21T04:47:08.952Z,0
2016-02-21T04:48:08.955Z,0
2016-02-21T04:49:08.972Z,0
2016-02-21T04:50:08.975Z,0
2016-02-21T04:51:08.977Z,0
2016-02-21T04:52:08.965Z,0
2016-02-21T04:53:08.967Z,0
2016-02-21T04:54:08.970Z,0
2016-02-21T04:55:08.974Z,0
2016-02-21T04:56:08.976Z,0
2016-02-21T04:57:08.979Z,0
2016-02-21T04:58:08.965Z,0
2016-02-21T04:59:08.968Z,0
2016-02-21T05:00:08.986Z,0
2016-02-21T05:01:08.973Z,0
2016-02-21T05:02:08.976Z,0
2016-02-21T05:03:08.995Z,0
2016-02-21T05:04:08.856Z,0
2016-02-21T05:05:08.984Z,0
2016-02-21T05:06:08.971Z,0
2016-02-21T05:07:08.989Z,0
2016-02-21T05:08:08.976Z,0
2016-02-21T05:09:08.995Z,0
2016-02-21T05:10:08.998Z,0
2016-02-21T05:11:08.984Z,0
2016-02-21T05:12:08.987Z,0
2016-02-21T05:13:08.989Z,0
2016-02-21T05:14:08.977Z,0
2016-02-21T05:15:08.996Z,0
2016-02-21T05:16:08.983Z,0
2016-02-21T05:17:08.986Z,0
2016-02-21T05:18:09.003Z,0
2016-02-21T05:19:08.975Z,0
2016-02-21T05:20:09.008Z,0
2016-02-21T05:21:08.980Z,0
2016-02-21T05:22:08.982Z,0
2016-02-21T05:23:09.002Z,0
2016-02-21T05:24:08.989Z,0
2016-02-21T05:25:09.007Z,0
2016-02-21T05:26:08.993Z,0
2016-02-21T05:27:09.012Z,0
2016-02-21T05:28:09.015Z,0
2016-02-21T05:29:08.987Z,0
2016-02-21T05:30:09.004Z,0
2016-02-21T05:31:08.993Z,0
2016-02-21T05:32:08.979Z,0
2016-02-21T05:33:08.998Z,0
2016-02-21T05:34:08.859Z,0
2016-02-21T05:35:09.002Z,0
2016-02-21T05:36:08.990Z,0
2016-02-21T05:37:08.993Z,0
2016-02-21T05:38:08.995Z,0
2016-02-21T05:39:08.998Z,0
2016-02-21T05:40:09.016Z,0
2016-02-21T05:41:09.003Z,0
2016-02-21T05:42:09.005Z,0
2016-02-21T05:43:09.008Z,0
2016-02-21T05:44:08.996Z,0
2016-02-21T05:45:08.889Z,0
2016-02-21T05:46:08.986Z,0
2016-02-21T05:47:09.003Z,0
2016-02-21T05:48:09.037Z,0
2016-02-21T05:49:08.852Z,0
2016-02-21T05:50:08.996Z,0
2016-02-21T05:51:08.999Z,0
2016-02-21T05:52:09.017Z,0
2016-02-21T05:53:09.020Z,0
2016-02-21T05:54:09.022Z,0
2016-02-21T05:55:09.024Z,0
2016-02-21T05:56:09.012Z,0
2016-02-21T05:57:09.015Z,0
2016-02-21T05:58:09.018Z,0
2016-02-21T05:59:09.005Z,0
2016-02-21T06:00:09.023Z,0
2016-02-21T06:01:09.010Z,0
2016-02-21T06:02:09.012Z,0
2016-02-21T06:03:09.016Z,0
2016-02-21T06:04:09.017Z,4
2016-02-21T06:05:09.005Z,4
2016-02-21T06:06:09.008Z,4
2016-02-21T06:07:09.042Z,4
2016-02-21T06:08:09.013Z,4
2016-02-21T06:09:09.015Z,4
2016-02-21T06:10:09.018Z,8
2016-02-21T06:11:09.020Z,8
2016-02-21T06:12:09.039Z,4
2016-02-21T06:13:09.011Z,8
2016-02-21T06:14:09.014Z,12
2016-02-21T06:15:09.017Z,8
2016-02-21T06:16:09.003Z,12
2016-02-21T06:17:08.881Z,12
2016-02-21T06:18:09.025Z,16
2016-02-21T06:19:09.028Z,16
2016-02-21T06:20:09.014Z,16
2016-02-21T06:21:09.048Z,20
2016-02-21T06:22:09.020Z,20
2016-02-21T06:23:09.022Z,24
2016-02-21T06:24:09.041Z,32
2016-02-21T06:25:08.871Z,28
2016-02-21T06:26:09.030Z,32
2016-02-21T06:27:09.018Z,32
2016-02-21T06:28:09.021Z,36
2016-02-21T06:29:09.038Z,40
2016-02-21T06:30:09.026Z,40
2016-02-21T06:31:09.028Z,40
2016-02-21T06:32:09.015Z,44
2016-02-21T06:33:09.017Z,44
2016-02-21T06:34:09.037Z,44
2016-02-21T06:35:09.024Z,52
2016-02-21T06:36:09.057Z,60
2016-02-21T06:37:09.029Z,64
2016-02-21T06:38:09.047Z,72
2016-02-21T06:39:09.018Z,80
2016-02-21T06:40:09.036Z,92
2016-02-21T06:41:09.039Z,104
2016-02-21T06:42:09.042Z,108
2016-02-21T06:43:09.045Z,112
2016-02-21T06:44:09.048Z,116
2016-02-21T06:45:09.050Z,124
2016-02-21T06:46:09.021Z,128
2016-02-21T06:47:09.024Z,140
2016-02-21T06:48:09.059Z,136
2016-02-21T06:49:09.030Z,144
2016-02-21T06:50:09.033Z,152
2016-02-21T06:51:09.035Z,156
2016-02-21T06:52:09.069Z,152
2016-02-21T06:53:09.040Z,148
2016-02-21T06:54:09.043Z,156
2016-02-21T06:55:09.031Z,164
2016-02-21T06:56:09.033Z,160
2016-02-21T06:57:09.067Z,156
2016-02-21T06:58:09.038Z,152
2016-02-21T06:59:09.057Z,156
2016-02-21T07:00:09.137Z,168
2016-02-21T07:01:09.046Z,180
2016-02-21T07:02:09.065Z,188
2016-02-21T07:03:09.036Z,200
2016-02-21T07:04:09.070Z,212
2016-02-21T07:05:08.885Z,212
2016-02-21T07:06:09.060Z,220
2016-02-21T07:07:09.046Z,252
2016-02-21T07:08:09.065Z,260
2016-02-21T07:09:09.052Z,256
2016-02-21T07:10:09.054Z,244
2016-02-21T07:11:09.042Z,260
2016-02-21T07:12:09.045Z,284
2016-02-21T07:13:09.062Z,304
2016-02-21T07:14:09.050Z,344
2016-02-21T07:15:09.053Z,380
2016-02-21T07:16:09.039Z,408
2016-02-21T07:17:09.042Z,416
2016-02-21T07:18:09.061Z,420
2016-02-21T07:19:09.033Z,412
2016-02-21T07:20:09.081Z,404
2016-02-21T07:21:09.053Z,400
2016-02-21T07:22:09.056Z,396
2016-02-21T07:23:09.058Z,412
2016-02-21T07:24:09.046Z,420
2016-02-21T07:25:09.064Z,424
2016-02-21T07:26:09.051Z,416
2016-02-21T07:27:09.070Z,428
2016-02-21T07:28:09.072Z,392
2016-02-21T07:29:09.043Z,372
2016-02-21T07:30:09.062Z,376
2016-02-21T07:31:09.064Z,420
2016-02-21T07:32:09.052Z,436
2016-02-21T07:33:09.086Z,456
2016-02-21T07:34:09.057Z,480
2016-02-21T07:35:09.075Z,540
2016-02-21T07:36:09.062Z,592
2016-02-21T07:37:09.065Z,604
2016-02-21T07:38:09.068Z,596
2016-02-21T07:39:09.071Z,636
2016-02-21T07:40:09.074Z,656
2016-02-21T07:41:09.060Z,704
2016-02-21T07:42:09.095Z,772
2016-02-21T07:43:09.065Z,816
2016-02-21T07:44:09.068Z,908
2016-02-21T07:45:09.055Z,988
2016-02-21T07:46:09.059Z,1028
2016-02-21T07:47:09.076Z,1088
2016-02-21T07:48:09.064Z,1124
2016-02-21T07:49:09.066Z,1116
2016-02-21T07:50:09.069Z,1124
2016-02-21T07:51:09.086Z,1128
2016-02-21T07:52:09.074Z,1088
2016-02-21T07:53:08.921Z,1152
2016-02-21T07:54:09.064Z,1160
2016-02-21T07:55:09.067Z,1168
2016-02-21T07:56:09.085Z,1180
2016-02-21T07:57:09.072Z,1192
2016-02-21T07:58:09.074Z,1156
2016-02-21T07:59:09.078Z,1120
2016-02-21T08:00:09.080Z,1140
2016-02-21T08:01:09.083Z,1120
2016-02-21T08:02:09.086Z,1104
2016-02-21T08:03:09.088Z,1112
2016-02-21T08:04:09.075Z,1136
2016-02-21T08:05:09.078Z,1168
2016-02-21T08:06:09.080Z,1204
2016-02-21T08:07:09.083Z,1224
2016-02-21T08:08:09.086Z,1248
2016-02-21T08:09:09.089Z,1244
2016-02-21T08:10:09.091Z,1248
2016-02-21T08:11:09.079Z,1212
2016-02-21T08:12:09.097Z,1188
2016-02-21T08:13:09.084Z,1200
2016-02-21T08:14:09.071Z,1244
2016-02-21T08:15:09.090Z,1300
2016-02-21T08:16:09.092Z,1404
2016-02-21T08:17:09.095Z,1548
2016-02-21T08:18:09.098Z,1632
2016-02-21T08:19:09.100Z,1680
2016-02-21T08:20:09.087Z,1640
2016-02-21T08:21:09.089Z,1584
2016-02-21T08:22:09.093Z,1584
2016-02-21T08:23:09.095Z,1604
2016-02-21T08:24:09.098Z,1680
2016-02-21T08:25:09.085Z,1872
2016-02-21T08:26:09.088Z,2000
2016-02-21T08:27:09.105Z,1988
2016-02-21T08:28:09.108Z,2092
2016-02-21T08:29:09.096Z,2268
2016-02-21T08:30:09.099Z,2420
2016-02-21T08:31:09.102Z,2540
2016-02-21T08:32:09.104Z,2552
2016-02-21T08:33:09.107Z,2584
2016-02-21T08:34:09.109Z,2484
2016-02-21T08:35:09.113Z,2392
2016-02-21T08:36:09.098Z,2280
2016-02-21T08:37:09.102Z,2204
2016-02-21T08:38:09.120Z,2112
2016-02-21T08:39:09.123Z,1952
2016-02-21T08:40:09.109Z,1776
2016-02-21T08:41:09.112Z,1580
2016-02-21T08:42:09.115Z,1404
2016-02-21T08:43:09.101Z,1316
2016-02-21T08:44:09.105Z,1244
2016-02-21T08:45:09.107Z,1220
2016-02-21T08:46:09.110Z,1188
2016-02-21T08:47:09.128Z,1216
2016-02-21T08:48:09.131Z,1228
2016-02-21T08:49:09.118Z,1268
2016-02-21T08:50:09.105Z,1296
2016-02-21T08:51:09.156Z,1336
2016-02-21T08:52:09.126Z,1328
2016-02-21T08:53:09.114Z,1404
2016-02-21T08:54:09.116Z,1500
2016-02-21T08:55:09.119Z,1564
2016-02-21T08:56:09.105Z,1580
2016-02-21T08:57:09.139Z,1564
2016-02-21T08:58:09.127Z,1636
2016-02-21T08:59:09.145Z,1680
2016-02-21T09:00:09.133Z,1624
2016-02-21T09:01:09.119Z,1568
2016-02-21T09:02:09.122Z,1644
2016-02-21T09:03:09.125Z,1728
2016-02-21T09:04:09.127Z,1800
2016-02-21T09:05:09.130Z,1804
2016-02-21T09:06:09.133Z,1800
2016-02-21T09:07:09.151Z,1804
2016-02-21T09:08:09.154Z,1764
2016-02-21T09:09:09.157Z,1764
2016-02-21T09:10:09.144Z,1708
2016-02-21T09:11:09.130Z,1660
2016-02-21T09:12:09.133Z,1644
2016-02-21T09:13:09.151Z,1536
2016-02-21T09:14:09.138Z,1444
2016-02-21T09:15:09.141Z,1392
2016-02-21T09:16:09.144Z,1348
2016-02-21T09:17:09.162Z,1348
2016-02-21T09:18:09.165Z,1372
2016-02-21T09:19:09.151Z,1400
2016-02-21T09:20:09.139Z,1428
2016-02-21T09:21:09.142Z,1420
2016-02-21T09:22:09.175Z,1412
2016-02-21T09:23:09.163Z,1404
2016-02-21T09:24:09.150Z,1332
2016-02-21T09:25:09.152Z,1264
2016-02-21T09:26:09.156Z,1236
2016-02-21T09:27:09.158Z,1192
2016-02-21T09:28:09.161Z,1180
2016-02-21T09:29:09.147Z,1124
2016-02-21T09:30:09.166Z,1056
2016-02-21T09:31:09.169Z,1052
2016-02-21T09:32:09.171Z,1036
2016-02-21T09:33:09.174Z,1012
2016-02-21T09:34:09.161Z,1008
2016-02-21T09:35:09.180Z,1024
2016-02-21T09:36:09.166Z,1024
2016-02-21T09:37:09.185Z,1024
2016-02-21T09:38:09.157Z,1044
2016-02-21T09:39:09.159Z,1080
2016-02-21T09:40:09.177Z,1108
2016-02-21T09:41:09.164Z,1156
2016-02-21T09:42:09.183Z,1132
2016-02-21T09:43:09.170Z,1104
2016-02-21T09:44:09.188Z,1080
2016-02-21T09:45:09.175Z,1096
2016-02-21T09:46:09.178Z,1108
2016-02-21T09:47:09.196Z,1100
2016-02-21T09:48:09.167Z,1068
2016-02-21T09:49:09.187Z,1060
2016-02-21T09:50:09.173Z,1072
2016-02-21T09:51:09.191Z,1132
2016-02-21T09:52:09.209Z,1164
2016-02-21T09:53:09.181Z,1168
2016-02-21T09:54:09.199Z,1148
2016-02-21T09:55:09.187Z,1152
2016-02-21T09:56:09.189Z,1176
2016-02-21T09:57:09.208Z,1256
2016-02-21T09:58:09.210Z,1416
2016-02-21T09:59:09.213Z,1672
2016-02-21T10:00:09.184Z,1856
2016-02-21T10:01:09.219Z,1868
2016-02-21T10:02:09.252Z,1916
2016-02-21T10:03:09.192Z,2132
2016-02-21T10:04:09.210Z,2304
2016-02-21T10:05:09.183Z,2404
2016-02-21T10:06:09.216Z,2392
2016-02-21T10:07:09.188Z,2392
2016-02-21T10:08:09.191Z,2428
2016-02-21T10:09:09.193Z,2440
2016-02-21T10:10:09.196Z,2404
2016-02-21T10:11:09.214Z,2352
2016-02-21T10:12:09.202Z,2384
2016-02-21T10:13:09.205Z,2492
2016-02-21T10:14:09.253Z,2484
2016-02-21T10:15:09.210Z,2408
2016-02-21T10:16:09.227Z,2516
2016-02-21T10:17:09.215Z,2564
2016-02-21T10:18:09.218Z,2664
2016-02-21T10:19:09.220Z,2992
2016-02-21T10:20:09.223Z,3124
2016-02-21T10:21:09.210Z,3104
2016-02-21T10:22:09.213Z,3192
2016-02-21T10:23:09.216Z,3028
2016-02-21T10:24:09.218Z,2876
2016-02-21T10:25:09.221Z,2892
2016-02-21T10:26:09.223Z,2952
2016-02-21T10:27:09.210Z,3084
2016-02-21T10:28:09.073Z,3236
2016-02-21T10:29:09.076Z,3476
2016-02-21T10:30:09.234Z,3368
2016-02-21T10:31:09.221Z,2992
2016-02-21T10:32:09.224Z,3052
2016-02-21T10:33:09.226Z,3432
2016-02-21T10:34:09.229Z,3552
2016-02-21T10:35:09.248Z,3364
2016-02-21T10:36:09.235Z,3180
2016-02-21T10:37:09.237Z,3088
2016-02-21T10:38:09.240Z,2756
2016-02-21T10:39:09.242Z,2600
2016-02-21T10:40:09.245Z,2652
2016-02-21T10:41:09.233Z,2860
2016-02-21T10:42:09.251Z,2836
2016-02-21T10:43:09.253Z,2568
2016-02-21T10:44:09.241Z,2548
2016-02-21T10:45:09.243Z,2616
2016-02-21T10:46:09.246Z,2500
2016-02-21T10:47:09.249Z,2608
2016-02-21T10:48:09.252Z,2760
2016-02-21T10:49:09.254Z,2728
2016-02-21T10:50:09.272Z,2908
2016-02-21T10:51:09.259Z,2984
2016-02-21T10:52:09.262Z,2940
2016-02-21T10:53:09.265Z,3056
2016-02-21T10:54:09.268Z,3220
2016-02-21T10:55:09.255Z,3376
2016-02-21T10:56:09.257Z,3248
2016-02-21T10:57:09.260Z,3208
2016-02-21T10:58:09.278Z,3168
2016-02-21T10:59:09.281Z,3096
2016-02-21T11:00:09.283Z,3248
2016-02-21T11:01:09.271Z,3220
2016-02-21T11:02:09.273Z,3220
2016-02-21T11:03:09.276Z,3256
2016-02-21T11:04:09.264Z,3352
2016-02-21T11:05:09.281Z,3484
2016-02-21T11:06:09.284Z,3404
2016-02-21T11:07:09.287Z,3124
2016-02-21T11:08:09.274Z,3076
2016-02-21T11:09:09.277Z,2908
2016-02-21T11:10:09.280Z,3096
2016-02-21T11:11:09.282Z,3044
2016-02-21T11:12:09.285Z,2804
2016-02-21T11:13:09.287Z,2764
2016-02-21T11:14:09.290Z,2908
2016-02-21T11:15:09.308Z,2988
2016-02-21T11:16:09.296Z,3044
2016-02-21T11:17:09.299Z,3192
2016-02-21T11:18:09.302Z,3128
2016-02-21T11:19:09.304Z,3228
2016-02-21T11:20:09.291Z,3132
2016-02-21T11:21:09.309Z,3084
2016-02-21T11:22:09.296Z,3028
2016-02-21T11:23:09.299Z,3352
2016-02-21T11:24:09.301Z,3488
2016-02-21T11:25:09.288Z,3636
2016-02-21T11:26:09.307Z,3564
2016-02-21T11:27:09.326Z,3724
2016-02-21T11:28:09.312Z,3948
2016-02-21T11:29:09.331Z,3588
2016-02-21T11:30:09.318Z,3244
2016-02-21T11:31:09.320Z,3504
2016-02-21T11:32:09.323Z,3900
2016-02-21T11:33:09.326Z,4052
2016-02-21T11:34:09.329Z,4120
2016-02-21T11:35:09.409Z,4296
2016-02-21T11:36:09.317Z,4108
2016-02-21T11:37:09.320Z,4588
2016-02-21T11:38:09.339Z,4804
2016-02-21T11:39:09.342Z,4716
2016-02-21T11:40:09.328Z,4468
2016-02-21T11:41:09.331Z,4652
2016-02-21T11:42:09.334Z,4728
2016-02-21T11:43:09.337Z,4612
2016-02-21T11:44:09.339Z,4580
2016-02-21T11:45:09.342Z,4696
2016-02-21T11:46:09.344Z,4796
2016-02-21T11:47:09.363Z,4820
2016-02-21T11:48:09.366Z,4708
2016-02-21T11:49:09.353Z,4652
2016-02-21T11:50:09.355Z,4400
2016-02-21T11:51:09.358Z,4204
2016-02-21T11:52:09.361Z,4196
2016-02-21T11:53:09.363Z,4088
2016-02-21T11:54:09.366Z,4388
2016-02-21T11:55:09.369Z,4288
2016-02-21T11:56:09.199Z,4232
2016-02-21T11:57:09.371Z,4140
2016-02-21T11:58:09.359Z,4636
2016-02-21T11:59:09.348Z,4700
2016-02-21T12:00:09.320Z,4772
2016-02-21T12:01:09.339Z,4484
2016-02-21T12:02:10.454Z,4308
2016-02-21T12:03:09.326Z,4396
2016-02-21T12:04:09.293Z,4196
2016-02-21T12:05:09.321Z,4396
2016-02-21T12:06:09.288Z,4364
2016-02-21T12:07:09.286Z,4372
2016-02-21T12:08:09.286Z,4464
2016-02-21T12:09:09.334Z,4548
2016-02-21T12:10:09.288Z,4640
2016-02-21T12:11:09.303Z,4564
2016-02-21T12:12:09.133Z,4432
2016-02-21T12:13:09.306Z,4732
2016-02-21T12:14:09.294Z,4884
2016-02-21T12:15:09.295Z,5496
2016-02-21T12:16:09.298Z,5104
2016-02-21T12:17:09.299Z,4920
2016-02-21T12:18:09.302Z,5232
2016-02-21T12:19:09.304Z,5740
2016-02-21T12:20:09.338Z,5148
2016-02-21T12:21:09.310Z,4792
2016-02-21T12:22:09.313Z,4632
2016-02-21T12:23:09.316Z,4808
2016-02-21T12:24:09.334Z,4592
2016-02-21T12:25:09.321Z,4260
2016-02-21T12:26:09.324Z,4400
2016-02-21T12:27:09.326Z,4528
2016-02-21T12:28:09.344Z,5576
2016-02-21T12:29:09.332Z,4912
2016-02-21T12:30:09.334Z,3940
2016-02-21T12:31:09.352Z,4272
2016-02-21T12:32:09.340Z,4128
2016-02-21T12:33:09.217Z,3684
2016-02-21T12:34:09.346Z,3368
2016-02-21T12:35:09.348Z,3532
2016-02-21T12:36:09.350Z,3580
2016-02-21T12:37:09.353Z,4364
2016-02-21T12:38:09.356Z,4040
2016-02-21T12:39:09.359Z,3504
2016-02-21T12:40:09.361Z,4116
2016-02-21T12:41:09.364Z,3704
2016-02-21T12:42:09.367Z,3728
2016-02-21T12:43:09.369Z,3792
2016-02-21T12:44:09.372Z,4344
2016-02-21T12:45:09.375Z,3756
2016-02-21T12:46:09.378Z,4312
2016-02-21T12:47:09.380Z,4456
2016-02-21T12:48:09.382Z,3012
2016-02-21T12:49:09.385Z,3016
2016-02-21T12:50:09.389Z,3828
2016-02-21T12:51:09.375Z,3412
2016-02-21T12:52:09.393Z,3804
2016-02-21T12:53:09.397Z,3712
2016-02-21T12:54:09.383Z,3584
2016-02-21T12:55:09.385Z,3580
2016-02-21T12:56:09.405Z,3212
2016-02-21T12:57:09.407Z,3588
2016-02-21T12:58:09.394Z,3888
2016-02-21T12:59:09.397Z,3108
2016-02-21T13:00:09.415Z,2888
2016-02-21T13:01:09.418Z,2656
2016-02-21T13:02:09.420Z,2540
2016-02-21T13:03:09.423Z,2432
2016-02-21T13:04:09.426Z,2432
2016-02-21T13:05:09.444Z,2380
2016-02-21T13:06:09.432Z,2512
2016-02-21T13:07:09.434Z,2920
2016-02-21T13:08:09.437Z,2932
2016-02-21T13:09:09.440Z,2928
2016-02-21T13:10:09.442Z,2856
2016-02-21T13:11:09.445Z,2788
2016-02-21T13:12:09.447Z,2660
2016-02-21T13:13:09.450Z,2772
2016-02-21T13:14:09.296Z,2716
2016-02-21T13:15:09.456Z,2664
2016-02-21T13:16:09.474Z,2776
2016-02-21T13:17:09.461Z,2748
2016-02-21T13:18:09.464Z,2788
2016-02-21T13:19:09.466Z,2856
2016-02-21T13:20:09.469Z,2908
2016-02-21T13:21:09.472Z,3204
2016-02-21T13:22:09.475Z,3268
2016-02-21T13:23:09.477Z,3372
2016-02-21T13:24:09.479Z,3260
2016-02-21T13:25:09.483Z,3712
2016-02-21T13:26:09.485Z,3656
2016-02-21T13:27:09.503Z,3828
2016-02-21T13:28:09.506Z,3820
2016-02-21T13:29:09.494Z,3372
2016-02-21T13:30:09.496Z,3396
2016-02-21T13:31:09.498Z,3212
2016-02-21T13:32:09.501Z,2940
2016-02-21T13:33:09.504Z,2780
2016-02-21T13:34:09.506Z,2964
2016-02-21T13:35:09.509Z,3100
2016-02-21T13:36:09.512Z,3304
2016-02-21T13:37:09.515Z,3584
2016-02-21T13:38:09.517Z,3852
2016-02-21T13:39:09.520Z,3964
2016-02-21T13:40:09.538Z,3944
2016-02-21T13:41:09.557Z,3740
2016-02-21T13:42:09.528Z,3284
2016-02-21T13:43:09.530Z,3056
2016-02-21T13:44:09.534Z,3124
2016-02-21T13:45:09.536Z,2628
2016-02-21T13:46:09.539Z,2608
2016-02-21T13:47:09.541Z,2524
2016-02-21T13:48:09.544Z,2416
2016-02-21T13:49:09.562Z,2220
2016-02-21T13:50:09.550Z,2168
2016-02-21T13:51:09.552Z,2232
2016-02-21T13:52:09.555Z,2420
2016-02-21T13:53:09.557Z,2716
2016-02-21T13:54:09.575Z,2928
2016-02-21T13:55:09.563Z,2976
2016-02-21T13:56:09.566Z,3084
2016-02-21T13:57:09.568Z,3192
2016-02-21T13:58:09.571Z,3244
2016-02-21T13:59:09.573Z,3356